Time;durP1;ratioP1;P1;durP2;ratioP2;P2;SDS_P1;SDS_P2;PMS_P1;PMS_P2;Temp;Humidity;BMP_temperature;BMP_pressure;BME280_temperature;BME280_humidity;BME280_pressure;Samples;Min_cycle;Max_cycle;Signal;HPM_P1;HPM_P2
2022/04/22 00:01:29;;;;;;;7.20;6.50;;;;;;;;;;5054906;28;20221;-82
2022/04/22 00:03:56;;;;;;;7.87;7.27;;;;;;;;;;5055026;28;20647;-82
2022/04/22 00:06:23;;;;;;;8.83;7.90;;;;;;;;;;5054886;28;20689;-82
2022/04/22 00:08:50;;;;;;;9.07;8.17;;;;;;;;;;5054733;28;20737;-82
2022/04/22 00:11:32;;;;;;;8.37;6.70;;;;;;;;;;5054854;28;20292;-82
2022/04/22 00:14:05;;;;;;;8.10;7.40;;;;;;;;;;5054814;28;20248;-82
2022/04/22 00:16:35;;;;;;;8.60;7.80;;;;;;;;;;5055148;28;20216;-82
2022/04/22 00:19:02;;;;;;;7.67;6.87;;;;;;;;;;5055029;28;20940;-82
2022/04/22 00:21:29;;;;;;;6.90;6.20;;;;;;;;;;5054763;28;20304;-82
2022/04/22 00:23:57;;;;;;;8.07;7.17;;;;;;;;;;5054841;28;20248;-82
2022/04/22 00:26:24;;;;;;;7.37;6.77;;;;;;;;;;5054509;28;20288;-83
2022/04/22 00:28:51;;;;;;;7.23;6.63;;;;;;;;;;5054615;28;20198;-82
2022/04/22 00:31:20;;;;;;;7.97;7.27;;;;;;;;;;5054648;28;20225;-82
2022/04/22 00:33:50;;;;;;;8.90;8.00;;;;;;;;;;5054181;28;20644;-81
2022/04/22 00:36:21;;;;;;;7.50;6.90;;;;;;;;;;5054444;28;20285;-82
2022/04/22 00:38:51;;;;;;;7.60;6.90;;;;;;;;;;5054140;28;20292;-82
2022/04/22 00:41:18;;;;;;;7.17;6.57;;;;;;;;;;5054295;28;20316;-82
2022/04/22 00:43:50;;;;;;;7.90;7.00;;;;;;;;;;5054313;28;20228;-82
2022/04/22 00:46:17;;;;;;;7.90;7.17;;;;;;;;;;5054250;28;20198;-82
2022/04/22 00:48:47;;;;;;;7.50;6.50;;;;;;;;;;5054395;28;20644;-82
2022/04/22 00:51:14;;;;;;;7.57;6.87;;;;;;;;;;5053886;28;20198;-82
2022/04/22 00:53:48;;;;;;;6.53;6.00;;;;;;;;;;5054509;28;20198;-82
2022/04/22 00:56:15;;;;;;;7.13;6.53;;;;;;;;;;5053983;28;20233;-82
2022/04/22 00:58:43;;;;;;;7.50;6.80;;;;;;;;;;5054081;28;20291;-82
2022/04/22 01:01:11;;;;;;;8.77;7.07;;;;;;;;;;5054149;28;20257;-82
2022/04/22 01:03:39;;;;;;;6.87;6.23;;;;;;;;;;5053655;28;20245;-82
2022/04/22 01:11:58;;;;;;;7.70;7.00;;;;;;;;;;4992323;28;20287;-82
2022/04/22 01:14:26;;;;;;;8.13;7.33;;;;;;;;;;4992306;28;20204;-82
2022/04/22 01:16:53;;;;;;;7.17;6.57;;;;;;;;;;5021995;28;20204;-82
2022/04/22 01:19:23;;;;;;;6.53;5.93;;;;;;;;;;5053301;28;20289;-82
2022/04/22 01:21:51;;;;;;;5.90;5.40;;;;;;;;;;5053205;28;20642;-82
2022/04/22 01:24:19;;;;;;;5.63;5.07;;;;;;;;;;5053315;28;20289;-82
2022/04/22 01:26:47;;;;;;;5.53;4.97;;;;;;;;;;5053528;28;20285;-82
2022/04/22 01:29:15;;;;;;;7.47;6.77;;;;;;;;;;5053327;28;20724;-82
2022/04/22 01:31:43;;;;;;;10.77;8.47;;;;;;;;;;5053240;28;20225;-82
2022/04/22 01:34:11;;;;;;;6.97;6.33;;;;;;;;;;5053265;28;20719;-82
2022/04/22 01:36:38;;;;;;;6.67;6.07;;;;;;;;;;5053376;28;20197;-82
2022/04/22 01:39:10;;;;;;;6.70;6.00;;;;;;;;;;5053254;28;20190;-82
2022/04/22 01:41:40;;;;;;;7.77;6.57;;;;;;;;;;5052982;28;20308;-82
2022/04/22 01:44:08;;;;;;;6.27;5.70;;;;;;;;;;5053022;28;20202;-83
2022/04/22 01:46:35;;;;;;;6.53;5.93;;;;;;;;;;5052890;28;20197;-82
2022/04/22 01:49:08;;;;;;;7.90;6.30;;;;;;;;;;5053064;28;20726;-82
2022/04/22 01:51:36;;;;;;;11.57;10.40;;;;;;;;;;5053103;28;20197;-81
2022/04/22 01:54:03;;;;;;;10.20;9.30;;;;;;;;;;5052505;28;20237;-82
2022/04/22 01:56:32;;;;;;;9.13;8.37;;;;;;;;;;5052991;28;20201;-83
2022/04/22 01:59:02;;;;;;;8.13;7.33;;;;;;;;;;5052756;28;20288;-83
2022/04/22 02:01:29;;;;;;;9.00;8.10;;;;;;;;;;5052605;28;20218;-82
2022/04/22 02:03:56;;;;;;;7.57;6.87;;;;;;;;;;5052944;28;20207;-82
2022/04/22 02:06:23;;;;;;;8.43;7.63;;;;;;;;;;5053031;28;20586;-82
2022/04/22 02:09:00;;;;;;;7.03;6.33;;;;;;;;;;5052919;28;20202;-82
2022/04/22 02:11:27;;;;;;;7.40;6.70;;;;;;;;;;5052748;28;20648;-82
2022/04/22 02:13:56;;;;;;;6.77;6.17;;;;;;;;;;5052611;28;20201;-82
2022/04/22 02:16:23;;;;;;;8.60;6.50;;;;;;;;;;5052724;28;20285;-83
2022/04/22 02:18:53;;;;;;;7.90;7.17;;;;;;;;;;5052575;28;20692;-82
2022/04/22 02:21:21;;;;;;;7.73;7.00;;;;;;;;;;5052431;28;20267;-82
2022/04/22 02:23:48;;;;;;;7.27;6.57;;;;;;;;;;5052122;28;20697;-83
2022/04/22 02:26:15;;;;;;;6.60;5.97;;;;;;;;;;5052574;28;20280;-84
2022/04/22 02:28:42;;;;;;;7.57;6.97;;;;;;;;;;5052667;28;20229;-82
2022/04/22 02:31:11;;;;;;;7.17;6.57;;;;;;;;;;5051940;28;20201;-83
2022/04/22 02:33:40;;;;;;;7.27;6.67;;;;;;;;;;5052273;28;20304;-82
2022/04/22 02:36:08;;;;;;;7.33;6.73;;;;;;;;;;5052221;28;20252;-83
2022/04/22 02:38:44;;;;;;;7.73;6.17;;;;;;;;;;5052531;28;20284;-83
2022/04/22 02:46:56;;;;;;;7.97;7.00;;;;;;;;;;5042576;28;20327;-83
2022/04/22 02:49:23;;;;;;;7.90;6.60;;;;;;;;;;5051838;28;20288;-83
2022/04/22 02:51:56;;;;;;;7.60;6.90;;;;;;;;;;5052010;28;20682;-83
2022/04/22 02:54:24;;;;;;;7.93;7.13;;;;;;;;;;5051234;28;20202;-83
2022/04/22 02:56:52;;;;;;;8.13;7.17;;;;;;;;;;5051651;28;20245;-83
2022/04/22 02:59:25;;;;;;;7.67;6.93;;;;;;;;;;5051736;28;20761;-84
2022/04/22 03:01:53;;;;;;;7.70;6.97;;;;;;;;;;5051616;28;20280;-84
2022/04/22 03:04:21;;;;;;;8.07;7.27;;;;;;;;;;5051502;28;20193;-84
2022/04/22 03:06:51;;;;;;;7.57;6.63;;;;;;;;;;5051839;28;20198;-83
2022/04/22 03:09:21;;;;;;;7.93;7.20;;;;;;;;;;5051620;28;20279;-84
2022/04/22 03:11:55;;;;;;;8.77;8.00;;;;;;;;;;5052046;28;20300;-84
2022/04/22 03:14:25;;;;;;;10.83;9.50;;;;;;;;;;5051560;28;20207;-84
2022/04/22 03:16:52;;;;;;;9.63;8.73;;;;;;;;;;5051596;28;20267;-84
2022/04/22 03:19:24;;;;;;;7.40;6.70;;;;;;;;;;5051321;28;20292;-84
2022/04/22 03:21:57;;;;;;;9.23;8.43;;;;;;;;;;5051592;28;20225;-84
2022/04/22 03:24:28;;;;;;;8.13;7.33;;;;;;;;;;5051463;28;20589;-84
2022/04/22 03:26:55;;;;;;;9.43;8.60;;;;;;;;;;5051523;28;20223;-84
2022/04/22 03:29:22;;;;;;;9.83;8.33;;;;;;;;;;5051149;28;20811;-84
2022/04/22 03:31:58;;;;;;;11.73;8.80;;;;;;;;;;5051586;28;20281;-84
2022/04/22 03:34:27;;;;;;;9.90;8.90;;;;;;;;;;5051099;28;20292;-84
2022/04/22 03:36:55;;;;;;;10.10;9.20;;;;;;;;;;5051518;28;20289;-84
2022/04/22 03:39:22;;;;;;;9.47;8.67;;;;;;;;;;5051305;28;20198;-84
2022/04/22 03:41:49;;;;;;;8.43;7.57;;;;;;;;;;5051400;28;20308;-83
2022/04/22 03:44:16;;;;;;;9.63;8.70;;;;;;;;;;5051284;28;20237;-83
2022/04/22 03:46:44;;;;;;;11.63;10.47;;;;;;;;;;5051320;28;20205;-84
2022/04/22 03:49:11;;;;;;;8.47;7.60;;;;;;;;;;5051505;28;20563;-83
2022/04/22 03:51:39;;;;;;;8.70;7.90;;;;;;;;;;5051441;28;20745;-84
2022/04/22 03:54:07;;;;;;;12.87;11.43;;;;;;;;;;5051150;28;20285;-83
2022/04/22 03:59:18;;;;;;;9.07;8.27;;;;;;;;;;5051332;28;20661;-83
2022/04/22 04:01:45;;;;;;;15.17;13.73;;;;;;;;;;5051016;28;20316;-83
2022/04/22 04:04:12;;;;;;;10.53;9.63;;;;;;;;;;5051255;28;20229;-83
2022/04/22 04:06:42;;;;;;;10.57;9.57;;;;;;;;;;5051061;28;20198;-83
2022/04/22 04:17:25;;;;;;;7.50;6.90;;;;;;;;;;5054926;28;20181;-83
2022/04/22 04:25:26;;;;;;;11.17;10.07;;;;;;;;;;5054680;28;20185;-83
2022/04/22 04:27:53;;;;;;;13.67;12.43;;;;;;;;;;5054650;28;20296;-83
2022/04/22 04:30:21;;;;;;;9.80;8.90;;;;;;;;;;5054702;28;20285;-84
2022/04/22 04:32:48;;;;;;;37.53;28.60;;;;;;;;;;5054410;28;20208;-84
2022/04/22 04:35:15;;;;;;;18.17;16.23;;;;;;;;;;5054380;28;20705;-83
2022/04/22 04:37:47;;;;;;;15.27;13.77;;;;;;;;;;5054544;28;20201;-83
2022/04/22 04:40:14;;;;;;;21.07;18.30;;;;;;;;;;5054305;28;20696;-83
2022/04/22 04:42:41;;;;;;;16.40;14.47;;;;;;;;;;5054348;28;20317;-83
2022/04/22 04:45:10;;;;;;;18.30;16.70;;;;;;;;;;5053996;28;20194;-83
2022/04/22 04:47:41;;;;;;;26.60;23.90;;;;;;;;;;5054714;28;20562;-83
2022/04/22 04:50:10;;;;;;;25.07;22.43;;;;;;;;;;5054123;28;20666;-83
2022/04/22 04:52:38;;;;;;;17.30;15.53;;;;;;;;;;5054032;28;20201;-83
2022/04/22 04:55:11;;;;;;;11.53;10.43;;;;;;;;;;5054029;28;20194;-83
2022/04/22 04:57:38;;;;;;;12.17;11.07;;;;;;;;;;5054424;28;20197;-83
2022/04/22 05:00:07;;;;;;;11.30;10.27;;;;;;;;;;5053727;28;20288;-83
2022/04/22 05:02:34;;;;;;;10.23;9.33;;;;;;;;;;5053859;28;20265;-83
2022/04/22 05:05:06;;;;;;;11.93;10.77;;;;;;;;;;5053902;28;20234;-83
2022/04/22 05:07:50;;;;;;;11.53;10.50;;;;;;;;;;5054064;28;20251;-83
2022/04/22 05:10:23;;;;;;;11.17;10.20;;;;;;;;;;5053754;28;20221;-83
2022/04/22 05:12:51;;;;;;;9.07;8.37;;;;;;;;;;5053883;28;20623;-83
2022/04/22 05:15:19;;;;;;;8.27;7.47;;;;;;;;;;5053918;28;20275;-83
2022/04/22 05:17:48;;;;;;;9.20;8.40;;;;;;;;;;5053749;28;20631;-83
2022/04/22 05:20:16;;;;;;;17.43;15.83;;;;;;;;;;5053098;28;20244;-84
2022/04/22 05:22:44;;;;;;;14.60;13.30;;;;;;;;;;5053607;28;20232;-84
2022/04/22 05:25:14;;;;;;;8.67;7.97;;;;;;;;;;5053267;28;20233;-83
2022/04/22 05:27:43;;;;;;;9.67;8.73;;;;;;;;;;5053700;28;20205;-83
2022/04/22 05:32:55;;;;;;;10.23;9.00;;;;;;;;;;5053771;28;20185;-83
2022/04/22 05:35:35;;;;;;;21.17;19.47;;;;;;;;;;5053451;28;20281;-83
2022/04/22 05:38:03;;;;;;;59.77;47.83;;;;;;;;;;5053217;28;20236;-83
2022/04/22 05:40:31;;;;;;;15.43;13.87;;;;;;;;;;5052955;28;20245;-83
2022/04/22 05:43:08;;;;;;;10.53;9.53;;;;;;;;;;5053280;28;20218;-83
2022/04/22 05:45:38;;;;;;;9.60;8.80;;;;;;;;;;5053131;28;20221;-83
2022/04/22 05:48:06;;;;;;;8.63;7.90;;;;;;;;;;5053171;28;20198;-83
2022/04/22 05:50:36;;;;;;;9.37;8.57;;;;;;;;;;5052933;28;20663;-83
2022/04/22 05:53:09;;;;;;;10.17;9.27;;;;;;;;;;5053147;28;20197;-83
2022/04/22 05:55:37;;;;;;;9.20;8.40;;;;;;;;;;5052874;28;20286;-83
2022/04/22 05:58:04;;;;;;;8.30;7.60;;;;;;;;;;5052817;28;20206;-83
2022/04/22 06:00:39;;;;;;;8.97;8.07;;;;;;;;;;5052524;28;20288;-83
2022/04/22 06:03:07;;;;;;;7.67;6.87;;;;;;;;;;5052621;28;20704;-83
2022/04/22 06:05:34;;;;;;;8.43;7.67;;;;;;;;;;5051517;28;20193;-83
2022/04/22 06:10:51;;;;;;;18.33;16.50;;;;;;;;;;5052496;28;20178;-83
2022/04/22 06:13:18;;;;;;;15.53;13.93;;;;;;;;;;5052537;28;20234;-83
2022/04/22 06:15:47;;;;;;;14.60;12.67;;;;;;;;;;5052477;28;20228;-83
2022/04/22 06:18:14;;;;;;;13.57;12.23;;;;;;;;;;5052324;28;20277;-83
2022/04/22 06:20:41;;;;;;;10.90;9.07;;;;;;;;;;5052355;28;20232;-83
2022/04/22 06:23:09;;;;;;;24.57;17.80;;;;;;;;;;5052303;28;20221;-83
2022/04/22 06:25:46;;;;;;;18.93;16.87;;;;;;;;;;5052332;28;20653;-83
2022/04/22 06:28:13;;;;;;;25.93;23.33;;;;;;;;;;5052308;28;20277;-83
2022/04/22 06:30:41;;;;;;;40.53;33.70;;;;;;;;;;5051348;28;20202;-83
2022/04/22 06:33:11;;;;;;;99.03;70.57;;;;;;;;;;5052366;28;20212;-83
2022/04/22 06:35:39;;;;;;;45.50;31.07;;;;;;;;;;5052440;28;20201;-83
2022/04/22 06:38:09;;;;;;;92.77;44.20;;;;;;;;;;5052031;28;20297;-83
2022/04/22 06:46:06;;;;;;;17.40;15.30;;;;;;;;;;5052178;28;20186;-83
2022/04/22 06:48:36;;;;;;;12.60;11.40;;;;;;;;;;5051889;28;20209;-83
2022/04/22 06:51:06;;;;;;;65.00;43.87;;;;;;;;;;5051873;28;20194;-83
2022/04/22 06:53:37;;;;;;;54.30;39.13;;;;;;;;;;5052124;28;20190;-83
2022/04/22 06:56:06;;;;;;;29.23;20.70;;;;;;;;;;5052076;28;20252;-83
2022/04/22 06:58:37;;;;;;;19.03;14.03;;;;;;;;;;5052074;28;20225;-83
2022/04/22 07:01:05;;;;;;;14.47;12.70;;;;;;;;;;5052080;28;20190;-83
2022/04/22 07:03:37;;;;;;;15.60;13.13;;;;;;;;;;5051578;28;20237;-83
2022/04/22 07:06:04;;;;;;;10.00;9.10;;;;;;;;;;5051644;28;20197;-83
2022/04/22 07:08:32;;;;;;;16.30;13.83;;;;;;;;;;5051665;28;20237;-83
2022/04/22 07:11:00;;;;;;;16.70;15.00;;;;;;;;;;5051595;28;20687;-82
2022/04/22 07:13:28;;;;;;;12.40;11.20;;;;;;;;;;5051758;28;20582;-83
2022/04/22 07:16:10;;;;;;;10.00;9.10;;;;;;;;;;5051555;28;20650;-83
2022/04/22 07:18:45;;;;;;;13.27;11.93;;;;;;;;;;5051840;28;20637;-83
2022/04/22 07:21:13;;;;;;;14.87;13.37;;;;;;;;;;5051629;28;20232;-83
2022/04/22 07:23:40;;;;;;;13.80;12.60;;;;;;;;;;5051702;28;20221;-82
2022/04/22 07:26:10;;;;;;;13.13;11.93;;;;;;;;;;5051521;28;20198;-82
2022/04/22 07:28:38;;;;;;;16.97;15.47;;;;;;;;;;5051738;28;20198;-83
2022/04/22 07:31:09;;;;;;;18.00;16.27;;;;;;;;;;5051449;28;20237;-83
2022/04/22 07:33:37;;;;;;;16.50;15.10;;;;;;;;;;5051611;28;20681;-83
2022/04/22 07:36:06;;;;;;;18.13;16.63;;;;;;;;;;5051377;28;20297;-82
2022/04/22 07:38:34;;;;;;;16.43;15.03;;;;;;;;;;5051311;28;20686;-83
2022/04/22 07:41:01;;;;;;;14.73;13.47;;;;;;;;;;5051722;28;20633;-83
2022/04/22 07:49:07;;;;;;;19.03;17.33;;;;;;;;;;5055607;28;20177;-82
2022/04/22 07:51:36;;;;;;;20.17;18.17;;;;;;;;;;5055438;28;20201;-83
2022/04/22 07:54:04;;;;;;;15.33;14.03;;;;;;;;;;5055168;28;20194;-83
2022/04/22 07:56:31;;;;;;;12.80;11.73;;;;;;;;;;5055132;28;20670;-82
2022/04/22 07:58:59;;;;;;;11.27;10.27;;;;;;;;;;5055191;28;20202;-82
2022/04/22 08:01:26;;;;;;;11.00;10.00;;;;;;;;;;5055255;28;20295;-82
2022/04/22 08:03:55;;;;;;;9.87;9.00;;;;;;;;;;5055012;28;20225;-82
2022/04/22 08:06:23;;;;;;;31.07;24.50;;;;;;;;;;5054925;28;20204;-83
2022/04/22 08:08:51;;;;;;;21.70;18.17;;;;;;;;;;5054948;28;20197;-82
2022/04/22 08:11:24;;;;;;;30.43;23.30;;;;;;;;;;5055072;28;20279;-82
2022/04/22 08:13:52;;;;;;;18.03;15.33;;;;;;;;;;5054904;28;20285;-82
2022/04/22 08:16:19;;;;;;;22.57;17.93;;;;;;;;;;5054912;28;20584;-82
2022/04/22 08:18:46;;;;;;;40.57;31.27;;;;;;;;;;5054837;28;20288;-82
2022/04/22 08:21:13;;;;;;;34.27;26.13;;;;;;;;;;5054798;28;20561;-82
2022/04/22 08:23:41;;;;;;;31.73;25.70;;;;;;;;;;5054957;28;20257;-82
2022/04/22 08:26:10;;;;;;;24.80;17.80;;;;;;;;;;5054627;28;20284;-83
2022/04/22 08:28:46;;;;;;;25.53;19.43;;;;;;;;;;5054517;28;20284;-82
2022/04/22 08:31:14;;;;;;;17.60;15.80;;;;;;;;;;5054539;28;20208;-82
2022/04/22 08:33:45;;;;;;;29.37;23.57;;;;;;;;;;5054400;28;20281;-82
2022/04/22 08:36:13;;;;;;;41.87;29.00;;;;;;;;;;5054838;28;20536;-83
2022/04/22 08:38:40;;;;;;;44.30;27.90;;;;;;;;;;5054261;28;20229;-82
2022/04/22 08:41:10;;;;;;;21.63;17.33;;;;;;;;;;5054349;28;20281;-82
2022/04/22 08:43:38;;;;;;;27.40;20.63;;;;;;;;;;5054799;28;20320;-82
2022/04/22 08:49:58;;;;;;;28.03;22.03;;;;;;;;;;5054147;28;20198;-82
2022/04/22 08:51:37;;;;;;;21.70;19.23;;;;;;;;;;5054474;28;20201;-82
2022/04/22 08:54:05;;;;;;;15.47;13.47;;;;;;;;;;5053636;28;20194;-82
2022/04/22 08:56:34;;;;;;;10.80;9.70;;;;;;;;;;5054213;28;20671;-83
2022/04/22 08:59:01;;;;;;;11.87;10.60;;;;;;;;;;5053786;28;20238;-82
2022/04/22 09:01:29;;;;;;;9.07;8.27;;;;;;;;;;5054672;28;20561;-83
2022/04/22 09:03:56;;;;;;;20.20;12.97;;;;;;;;;;5054244;28;20256;-83
2022/04/22 09:06:25;;;;;;;9.37;8.57;;;;;;;;;;5054219;28;20645;-82
2022/04/22 09:08:58;;;;;;;10.53;9.53;;;;;;;;;;5053851;28;20255;-82
2022/04/22 09:11:26;;;;;;;17.13;15.33;;;;;;;;;;5053659;28;20288;-82
2022/04/22 09:13:55;;;;;;;13.07;12.13;;;;;;;;;;5054092;28;20245;-82
2022/04/22 09:16:26;;;;;;;11.60;10.50;;;;;;;;;;5053789;28;20622;-82
2022/04/22 09:19:00;;;;;;;6.87;6.23;;;;;;;;;;5053702;28;20198;-82
2022/04/22 09:21:27;;;;;;;10.23;8.10;;;;;;;;;;5053543;28;20186;-82
2022/04/22 09:23:55;;;;;;;9.20;8.30;;;;;;;;;;5053781;28;20229;-83
2022/04/22 09:26:23;;;;;;;8.60;7.50;;;;;;;;;;5053424;28;20190;-82
2022/04/22 09:29:02;;;;;;;9.73;8.83;;;;;;;;;;5053510;28;20198;-82
2022/04/22 09:31:30;;;;;;;16.17;14.47;;;;;;;;;;5053710;28;20197;-82
2022/04/22 09:33:58;;;;;;;13.27;11.70;;;;;;;;;;5052983;28;20255;-82
2022/04/22 09:44:57;;;;;;;10.70;9.70;;;;;;;;;;5053202;28;20293;-83
2022/04/22 09:47:27;;;;;;;10.00;8.07;;;;;;;;;;5053265;28;20293;-82
2022/04/22 09:49:55;;;;;;;10.43;8.40;;;;;;;;;;5053589;28;20207;-83
2022/04/22 09:52:28;;;;;;;10.43;8.53;;;;;;;;;;5052915;28;20209;-83
2022/04/22 09:55:03;;;;;;;11.77;10.57;;;;;;;;;;5052869;28;20240;-83
2022/04/22 09:57:54;;;;;;;9.50;8.70;;;;;;;;;;5053022;28;20280;-83
2022/04/22 10:00:23;;;;;;;15.90;10.87;;;;;;;;;;5052751;28;20186;-83
2022/04/22 10:02:52;;;;;;;7.50;6.80;;;;;;;;;;5052190;28;20233;-83
2022/04/22 10:05:20;;;;;;;7.20;6.60;;;;;;;;;;5052262;28;20294;-83
2022/04/22 10:07:50;;;;;;;9.17;8.37;;;;;;;;;;5052471;28;20210;-83
2022/04/22 10:10:18;;;;;;;19.63;11.00;;;;;;;;;;5052842;28;20221;-83
2022/04/22 10:12:48;;;;;;;15.23;13.63;;;;;;;;;;5052803;28;20280;-83
2022/04/22 10:15:15;;;;;;;9.87;8.20;;;;;;;;;;5052596;28;20650;-83
2022/04/22 10:17:45;;;;;;;40.83;28.90;;;;;;;;;;5052629;28;20750;-83
2022/04/22 10:20:13;;;;;;;13.87;11.57;;;;;;;;;;5052407;28;20202;-83
2022/04/22 10:22:48;;;;;;;43.60;33.80;;;;;;;;;;5052333;28;20194;-84
2022/04/22 10:25:15;;;;;;;39.93;32.73;;;;;;;;;;5052199;28;20724;-84
2022/04/22 10:27:43;;;;;;;17.67;15.60;;;;;;;;;;5052512;28;20237;-84
2022/04/22 10:30:19;;;;;;;11.23;9.73;;;;;;;;;;5052256;28;20202;-84
2022/04/22 10:32:49;;;;;;;14.17;11.57;;;;;;;;;;5052318;28;20201;-83
2022/04/22 10:35:16;;;;;;;13.73;10.73;;;;;;;;;;5052180;28;20260;-84
2022/04/22 10:37:44;;;;;;;55.20;46.57;;;;;;;;;;5052595;28;20202;-84
2022/04/22 10:40:21;;;;;;;16.43;12.23;;;;;;;;;;5052116;28;20202;-84
2022/04/22 10:42:58;;;;;;;60.47;41.37;;;;;;;;;;5052163;28;20198;-84
2022/04/22 10:48:24;;;;;;;9.37;8.30;;;;;;;;;;5052306;28;20181;-83
2022/04/22 10:50:58;;;;;;;81.60;52.93;;;;;;;;;;5051833;28;20661;-84
2022/04/22 10:53:29;;;;;;;44.13;29.13;;;;;;;;;;5052435;28;20690;-84
2022/04/22 10:56:43;;;;;;;46.23;32.73;;;;;;;;;;5052095;28;20666;-84
2022/04/22 10:59:32;;;;;;;29.33;24.93;;;;;;;;;;4970787;28;20313;-83
2022/04/22 11:02:30;;;;;;;24.50;18.90;;;;;;;;;;4968814;28;20209;-84
2022/04/22 11:05:31;;;;;;;23.10;16.67;;;;;;;;;;5043808;28;20706;-84
2022/04/22 11:08:07;;;;;;;17.10;11.57;;;;;;;;;;5051743;28;20623;-84
2022/04/22 11:11:13;;;;;;;16.50;11.73;;;;;;;;;;5051432;28;20280;-83
2022/04/22 11:13:49;;;;;;;28.50;24.33;;;;;;;;;;5051781;28;20221;-83
2022/04/22 11:16:28;;;;;;;28.27;22.53;;;;;;;;;;5051485;28;20203;-83
2022/04/22 11:19:27;;;;;;;14.63;13.07;;;;;;;;;;5051316;28;20189;-83
2022/04/22 11:21:58;;;;;;;14.40;12.90;;;;;;;;;;5035644;28;20198;-84
2022/04/22 11:24:31;;;;;;;15.17;12.07;;;;;;;;;;5051437;28;20308;-83
2022/04/22 11:27:07;;;;;;;20.27;17.10;;;;;;;;;;5052024;28;20196;-83
2022/04/22 11:29:41;;;;;;;7.07;6.37;;;;;;;;;;5051607;28;20217;-84
2022/04/22 11:32:19;;;;;;;11.47;8.63;;;;;;;;;;5051379;28;20288;-83
2022/04/22 11:35:16;;;;;;;11.50;10.27;;;;;;;;;;5051353;28;20182;-84
2022/04/22 11:37:59;;;;;;;15.70;14.17;;;;;;;;;;5051874;28;20273;-83
2022/04/22 11:40:28;;;;;;;16.27;13.53;;;;;;;;;;5051184;28;20203;-83
2022/04/22 11:42:55;;;;;;;9.57;8.50;;;;;;;;;;5052388;28;20195;-83
2022/04/22 11:45:23;;;;;;;10.03;6.27;;;;;;;;;;5051353;28;20294;-83
2022/04/22 11:47:50;;;;;;;11.33;10.33;;;;;;;;;;5051529;28;20273;-84
2022/04/22 11:50:21;;;;;;;10.77;8.30;;;;;;;;;;5051041;28;20238;-84
2022/04/22 11:52:54;;;;;;;11.27;9.77;;;;;;;;;;5051426;28;20202;-83
2022/04/22 11:55:24;;;;;;;16.20;13.73;;;;;;;;;;5051427;28;20289;-83
2022/04/22 11:58:01;;;;;;;11.47;8.37;;;;;;;;;;5051195;28;20289;-83
2022/04/22 12:05:57;;;;;;;12.90;9.63;;;;;;;;;;5051333;28;20267;-84
2022/04/22 12:08:25;;;;;;;10.23;8.50;;;;;;;;;;5051054;28;20204;-84
2022/04/22 12:10:55;;;;;;;8.67;7.77;;;;;;;;;;5050991;28;20199;-84
2022/04/22 12:13:26;;;;;;;14.27;10.57;;;;;;;;;;5051234;28;20199;-83
2022/04/22 12:15:56;;;;;;;11.27;9.40;;;;;;;;;;5050872;28;20241;-84
2022/04/22 12:18:30;;;;;;;9.43;8.20;;;;;;;;;;5051154;28;20202;-84
2022/04/22 12:20:58;;;;;;;7.17;5.93;;;;;;;;;;5050588;28;20237;-84
2022/04/22 12:23:33;;;;;;;8.10;7.37;;;;;;;;;;5051197;28;20674;-84
2022/04/22 12:26:01;;;;;;;9.67;8.53;;;;;;;;;;5051022;28;20284;-84
2022/04/22 12:28:30;;;;;;;10.07;8.73;;;;;;;;;;5051169;28;20572;-84
2022/04/22 12:30:57;;;;;;;6.43;5.00;;;;;;;;;;5054659;28;20233;-84
2022/04/22 12:33:25;;;;;;;12.30;9.33;;;;;;;;;;5054971;28;20252;-84
2022/04/22 12:36:07;;;;;;;7.43;6.10;;;;;;;;;;5054154;28;20230;-84
2022/04/22 12:38:36;;;;;;;5.73;5.17;;;;;;;;;;5054949;28;20194;-84
2022/04/22 12:41:03;;;;;;;10.07;5.57;;;;;;;;;;5054272;28;20239;-84
2022/04/22 12:43:35;;;;;;;9.83;5.20;;;;;;;;;;5054070;28;20195;-84
2022/04/22 12:52:16;;;;;;;10.30;7.97;;;;;;;;;;5034852;28;20220;-84
2022/04/22 12:55:02;;;;;;;9.43;8.47;;;;;;;;;;5034156;28;20201;-84
2022/04/22 12:57:29;;;;;;;7.60;6.00;;;;;;;;;;5034178;28;20185;-84
2022/04/22 12:59:58;;;;;;;11.13;9.43;;;;;;;;;;5033938;28;20261;-84
2022/04/22 13:02:30;;;;;;;10.10;9.10;;;;;;;;;;5032552;28;20305;-84
2022/04/22 13:05:01;;;;;;;15.20;9.80;;;;;;;;;;5033629;28;20234;-84
2022/04/22 13:07:41;;;;;;;11.93;10.73;;;;;;;;;;5034064;28;20292;-84
2022/04/22 13:10:09;;;;;;;10.13;8.40;;;;;;;;;;5033989;28;20200;-84
2022/04/22 13:12:39;;;;;;;12.73;8.80;;;;;;;;;;5034465;28;20202;-84
2022/04/22 13:15:10;;;;;;;12.53;10.60;;;;;;;;;;5033594;28;20198;-84
2022/04/22 13:17:40;;;;;;;12.30;8.63;;;;;;;;;;5033940;28;20220;-84
2022/04/22 13:20:09;;;;;;;8.87;7.73;;;;;;;;;;5033696;28;20184;-84
2022/04/22 13:22:37;;;;;;;8.17;7.37;;;;;;;;;;5033389;28;20210;-84
2022/04/22 13:25:10;;;;;;;8.73;7.93;;;;;;;;;;5033729;28;20669;-85
2022/04/22 13:27:37;;;;;;;12.03;10.33;;;;;;;;;;5033729;28;20236;-84
2022/04/22 13:30:05;;;;;;;9.67;8.53;;;;;;;;;;5033646;28;20276;-84
2022/04/22 13:32:38;;;;;;;11.90;10.70;;;;;;;;;;5033644;28;20207;-84
2022/04/22 13:35:12;;;;;;;9.53;7.23;;;;;;;;;;5033250;28;20199;-84
2022/04/22 13:37:40;;;;;;;8.27;6.93;;;;;;;;;;5033463;28;20287;-84
2022/04/22 13:40:11;;;;;;;7.53;6.77;;;;;;;;;;5033215;28;20289;-84
2022/04/22 13:42:46;;;;;;;10.00;9.00;;;;;;;;;;5033350;28;20288;-84
2022/04/22 13:53:38;;;;;;;9.07;8.17;;;;;;;;;;5033255;28;20188;-84
2022/04/22 13:56:08;;;;;;;9.17;7.60;;;;;;;;;;5033020;28;20288;-84
2022/04/22 13:58:37;;;;;;;12.73;9.60;;;;;;;;;;5033107;28;20736;-84
2022/04/22 14:01:07;;;;;;;8.43;5.77;;;;;;;;;;5032792;28;20205;-84
2022/04/22 14:03:39;;;;;;;7.57;6.90;;;;;;;;;;5032339;28;20234;-84
2022/04/22 14:06:09;;;;;;;7.00;6.40;;;;;;;;;;5033094;28;20312;-84
2022/04/22 14:08:37;;;;;;;8.70;7.23;;;;;;;;;;5032925;28;20207;-84
2022/04/22 14:11:08;;;;;;;10.17;9.17;;;;;;;;;;5032709;28;20256;-84
2022/04/22 14:13:35;;;;;;;8.30;6.80;;;;;;;;;;5032700;28;20213;-84
2022/04/22 14:16:03;;;;;;;8.17;7.30;;;;;;;;;;5032526;28;20289;-85
2022/04/22 14:18:33;;;;;;;14.33;12.23;;;;;;;;;;5033045;28;20284;-84
2022/04/22 14:21:05;;;;;;;6.90;5.57;;;;;;;;;;5032266;28;20704;-83
2022/04/22 14:23:33;;;;;;;6.97;5.30;;;;;;;;;;5032592;28;20198;-84
2022/04/22 14:26:00;;;;;;;8.13;5.63;;;;;;;;;;5032269;28;20269;-84
2022/04/22 14:28:33;;;;;;;7.43;5.67;;;;;;;;;;5032571;28;20237;-84
2022/04/22 14:31:11;;;;;;;14.07;10.83;;;;;;;;;;5032396;28;20208;-84
2022/04/22 14:33:40;;;;;;;7.27;5.97;;;;;;;;;;5032783;28;20622;-84
2022/04/22 14:36:09;;;;;;;5.20;4.70;;;;;;;;;;5032636;28;20571;-84
2022/04/22 14:38:37;;;;;;;6.50;5.03;;;;;;;;;;5032109;28;20577;-84
2022/04/22 14:41:10;;;;;;;4.83;4.33;;;;;;;;;;5032270;28;20264;-84
2022/04/22 14:43:38;;;;;;;3.90;3.50;;;;;;;;;;5032486;28;20227;-84
2022/04/22 14:46:09;;;;;;;8.80;6.43;;;;;;;;;;5031984;28;20249;-84
2022/04/22 14:48:42;;;;;;;7.03;5.67;;;;;;;;;;5032297;28;20584;-85
2022/04/22 14:51:11;;;;;;;4.23;3.20;;;;;;;;;;5031750;28;20229;-84
2022/04/22 14:53:38;;;;;;;12.67;4.93;;;;;;;;;;5031619;28;20210;-85
2022/04/22 14:56:08;;;;;;;3.83;3.07;;;;;;;;;;5032133;28;20198;-84
2022/04/22 14:58:35;;;;;;;6.57;5.87;;;;;;;;;;5031848;28;20548;-84
2022/04/22 15:01:03;;;;;;;5.17;3.67;;;;;;;;;;5031924;28;20297;-84
2022/04/22 15:03:30;;;;;;;3.83;2.57;;;;;;;;;;5031970;28;20321;-84
2022/04/22 15:06:00;;;;;;;5.37;3.30;;;;;;;;;;5031646;28;20229;-84
2022/04/22 15:08:28;;;;;;;5.50;5.10;;;;;;;;;;5032149;28;20603;-84
2022/04/22 15:11:02;;;;;;;6.50;4.77;;;;;;;;;;5031625;28;20237;-84
2022/04/22 15:13:33;;;;;;;7.43;6.50;;;;;;;;;;5031822;28;20287;-84
2022/04/22 15:16:00;;;;;;;8.33;5.30;;;;;;;;;;5031710;28;20190;-84
2022/04/22 15:24:15;;;;;;;7.67;4.93;;;;;;;;;;5031855;28;20703;-84
2022/04/22 15:26:44;;;;;;;9.07;6.60;;;;;;;;;;5031172;28;20608;-84
2022/04/22 15:29:17;;;;;;;9.00;6.20;;;;;;;;;;5031341;28;20201;-84
2022/04/22 15:31:45;;;;;;;8.50;5.63;;;;;;;;;;5032006;28;20199;-85
2022/04/22 15:34:12;;;;;;;11.97;7.77;;;;;;;;;;5031799;28;20198;-84
2022/04/22 15:36:45;;;;;;;7.07;6.37;;;;;;;;;;5031569;28;20689;-84
2022/04/22 15:39:14;;;;;;;11.40;8.33;;;;;;;;;;5031207;28;20689;-84
2022/04/22 15:41:43;;;;;;;6.40;4.57;;;;;;;;;;5031602;28;20236;-84
2022/04/22 15:44:10;;;;;;;5.63;4.60;;;;;;;;;;5031228;28;20286;-84
2022/04/22 15:46:38;;;;;;;5.90;4.93;;;;;;;;;;5031831;28;20228;-85
2022/04/22 15:49:06;;;;;;;6.23;4.83;;;;;;;;;;5031413;28;20211;-84
2022/04/22 15:51:33;;;;;;;12.27;6.50;;;;;;;;;;5031343;28;20691;-84
2022/04/22 15:54:01;;;;;;;7.17;5.50;;;;;;;;;;5031478;28;20636;-84
2022/04/22 15:56:34;;;;;;;5.30;4.03;;;;;;;;;;5031461;28;20202;-84
2022/04/22 15:59:10;;;;;;;4.60;4.13;;;;;;;;;;5031331;28;20710;-84
2022/04/22 16:01:43;;;;;;;14.30;9.23;;;;;;;;;;5031167;28;20206;-84
2022/04/22 16:04:14;;;;;;;11.00;6.47;;;;;;;;;;5031858;28;20230;-85
2022/04/22 16:06:42;;;;;;;13.03;8.67;;;;;;;;;;5034984;28;20696;-85
2022/04/22 16:09:12;;;;;;;17.23;11.57;;;;;;;;;;5035008;28;20198;-84
2022/04/22 16:17:13;;;;;;;10.40;9.13;;;;;;;;;;5035404;28;20188;-84
2022/04/22 16:19:40;;;;;;;21.00;14.97;;;;;;;;;;5034791;28;20202;-85